sensor_id;sensor_type;location;lat;lon;timestamp;temperature;humidity
19033;DHT22;9649;51.042;13.804;2023-06-22T00:03:59;21.60;1.00
19033;DHT22;9649;51.042;13.804;2023-06-22T00:09:03;21.60;1.00
19033;DHT22;9649;51.042;13.804;2023-06-22T00:14:06;21.50;1.00
19033;DHT22;9649;51.042;13.804;2023-06-22T00:19:08;21.50;1.00
19033;DHT22;9649;51.042;13.804;2023-06-22T00:24:14;21.50;1.00
19033;DHT22;9649;51.042;13.804;2023-06-22T00:29:17;21.30;1.00
19033;DHT22;9649;51.042;13.804;2023-06-22T00:34:20;21.20;1.00
19033;DHT22;9649;51.042;13.804;2023-06-22T00:39:24;21.10;1.00
19033;DHT22;9649;51.042;13.804;2023-06-22T00:44:27;21.00;1.00
19033;DHT22;9649;51.042;13.804;2023-06-22T00:49:30;21.00;1.00
19033;DHT22;9649;51.042;13.804;2023-06-22T00:54:34;20.90;1.00
19033;DHT22;9649;51.042;13.804;2023-06-22T00:59:37;20.60;47.60
19033;DHT22;9649;51.042;13.804;2023-06-22T01:04:40;20.50;75.20
19033;DHT22;9649;51.042;13.804;2023-06-22T01:09:52;20.30;80.60
19033;DHT22;9649;51.042;13.804;2023-06-22T01:15:00;20.30;99.90
19033;DHT22;9649;51.042;13.804;2023-06-22T01:20:06;20.20;99.90
19033;DHT22;9649;51.042;13.804;2023-06-22T01:25:19;20.40;97.70
19033;DHT22;9649;51.042;13.804;2023-06-22T01:30:24;20.50;82.40
19033;DHT22;9649;51.042;13.804;2023-06-22T01:35:28;20.70;12.00
19033;DHT22;9649;51.042;13.804;2023-06-22T01:40:32;20.80;1.00
19033;DHT22;9649;51.042;13.804;2023-06-22T01:45:36;20.50;25.80
19033;DHT22;9649;51.042;13.804;2023-06-22T01:50:40;20.40;94.50
19033;DHT22;9649;51.042;13.804;2023-06-22T01:55:43;20.30;99.90
19033;DHT22;9649;51.042;13.804;2023-06-22T02:00:50;20.30;99.90
19033;DHT22;9649;51.042;13.804;2023-06-22T02:05:58;20.40;90.80
19033;DHT22;9649;51.042;13.804;2023-06-22T02:11:05;20.20;99.90
19033;DHT22;9649;51.042;13.804;2023-06-22T02:16:11;20.20;99.90
19033;DHT22;9649;51.042;13.804;2023-06-22T02:21:14;20.10;99.90
19033;DHT22;9649;51.042;13.804;2023-06-22T02:26:17;19.70;99.90
19033;DHT22;9649;51.042;13.804;2023-06-22T02:31:21;19.50;99.90
19033;DHT22;9649;51.042;13.804;2023-06-22T02:36:24;19.80;99.90
19033;DHT22;9649;51.042;13.804;2023-06-22T02:41:28;19.80;99.90
19033;DHT22;9649;51.042;13.804;2023-06-22T02:46:32;19.60;99.90
19033;DHT22;9649;51.042;13.804;2023-06-22T02:51:35;19.70;99.90
19033;DHT22;9649;51.042;13.804;2023-06-22T02:56:38;19.60;99.90
19033;DHT22;9649;51.042;13.804;2023-06-22T03:01:43;19.50;99.90
19033;DHT22;9649;51.042;13.804;2023-06-22T03:06:46;19.40;99.90
19033;DHT22;9649;51.042;13.804;2023-06-22T03:11:52;19.40;99.90
19033;DHT22;9649;51.042;13.804;2023-06-22T03:16:56;19.40;99.90
19033;DHT22;9649;51.042;13.804;2023-06-22T03:22:04;19.60;99.90
19033;DHT22;9649;51.042;13.804;2023-06-22T03:27:08;19.70;99.90
19033;DHT22;9649;51.042;13.804;2023-06-22T03:32:12;19.60;99.90
19033;DHT22;9649;51.042;13.804;2023-06-22T03:37:15;19.60;99.90
19033;DHT22;9649;51.042;13.804;2023-06-22T03:42:18;19.50;99.90
19033;DHT22;9649;51.042;13.804;2023-06-22T03:47:22;19.60;99.90
19033;DHT22;9649;51.042;13.804;2023-06-22T03:52:25;19.80;99.90
19033;DHT22;9649;51.042;13.804;2023-06-22T03:57:27;19.80;99.90
19033;DHT22;9649;51.042;13.804;2023-06-22T04:02:31;20.00;99.90
19033;DHT22;9649;51.042;13.804;2023-06-22T04:07:34;20.10;16.40
19033;DHT22;9649;51.042;13.804;2023-06-22T04:12:38;20.00;26.40
19033;DHT22;9649;51.042;13.804;2023-06-22T04:17:42;19.90;97.90
19033;DHT22;9649;51.042;13.804;2023-06-22T04:22:45;20.20;1.00
19033;DHT22;9649;51.042;13.804;2023-06-22T04:27:48;20.20;15.30
19033;DHT22;9649;51.042;13.804;2023-06-22T04:32:52;20.30;1.00
19033;DHT22;9649;51.042;13.804;2023-06-22T04:37:59;20.40;1.00
19033;DHT22;9649;51.042;13.804;2023-06-22T04:43:02;20.70;1.00
19033;DHT22;9649;51.042;13.804;2023-06-22T04:48:06;21.00;1.00
19033;DHT22;9649;51.042;13.804;2023-06-22T04:53:10;21.20;1.00
19033;DHT22;9649;51.042;13.804;2023-06-22T04:58:14;21.60;1.00
19033;DHT22;9649;51.042;13.804;2023-06-22T05:03:18;22.00;1.00
19033;DHT22;9649;51.042;13.804;2023-06-22T05:08:21;22.60;1.00
19033;DHT22;9649;51.042;13.804;2023-06-22T05:13:28;23.00;99.90
19033;DHT22;9649;51.042;13.804;2023-06-22T05:18:32;23.30;99.90
19033;DHT22;9649;51.042;13.804;2023-06-22T05:23:36;23.60;1.00
19033;DHT22;9649;51.042;13.804;2023-06-22T05:28:39;24.20;1.00
19033;DHT22;9649;51.042;13.804;2023-06-22T05:33:43;24.50;1.00
19033;DHT22;9649;51.042;13.804;2023-06-22T05:38:46;24.70;1.00
19033;DHT22;9649;51.042;13.804;2023-06-22T05:43:49;24.60;1.00
19033;DHT22;9649;51.042;13.804;2023-06-22T05:48:53;24.40;1.00
19033;DHT22;9649;51.042;13.804;2023-06-22T05:53:56;24.60;1.00
19033;DHT22;9649;51.042;13.804;2023-06-22T05:58:59;24.60;1.00
19033;DHT22;9649;51.042;13.804;2023-06-22T06:04:04;24.80;1.00
19033;DHT22;9649;51.042;13.804;2023-06-22T06:09:06;24.70;1.00
19033;DHT22;9649;51.042;13.804;2023-06-22T06:14:09;24.80;1.00
19033;DHT22;9649;51.042;13.804;2023-06-22T06:19:13;24.90;99.90
19033;DHT22;9649;51.042;13.804;2023-06-22T06:24:16;25.00;50.70
19033;DHT22;9649;51.042;13.804;2023-06-22T06:29:19;25.50;1.00
19033;DHT22;9649;51.042;13.804;2023-06-22T06:34:23;26.00;99.90
19033;DHT22;9649;51.042;13.804;2023-06-22T06:39:26;26.00;99.90
19033;DHT22;9649;51.042;13.804;2023-06-22T06:44:28;26.20;8.60
19033;DHT22;9649;51.042;13.804;2023-06-22T06:49:33;26.40;1.00
19033;DHT22;9649;51.042;13.804;2023-06-22T06:54:36;26.40;1.00
19033;DHT22;9649;51.042;13.804;2023-06-22T06:59:39;25.70;10.30
19033;DHT22;9649;51.042;13.804;2023-06-22T07:04:43;25.60;1.00
19033;DHT22;9649;51.042;13.804;2023-06-22T07:09:46;25.90;99.90
19033;DHT22;9649;51.042;13.804;2023-06-22T07:14:49;26.10;1.00
19033;DHT22;9649;51.042;13.804;2023-06-22T07:19:53;26.60;1.00
19033;DHT22;9649;51.042;13.804;2023-06-22T07:24:56;27.40;1.00
19033;DHT22;9649;51.042;13.804;2023-06-22T07:29:59;27.70;1.00
19033;DHT22;9649;51.042;13.804;2023-06-22T07:35:03;27.90;1.00
19033;DHT22;9649;51.042;13.804;2023-06-22T07:40:08;28.70;1.00
19033;DHT22;9649;51.042;13.804;2023-06-22T07:45:11;29.60;99.90
19033;DHT22;9649;51.042;13.804;2023-06-22T07:50:16;30.30;25.50
19033;DHT22;9649;51.042;13.804;2023-06-22T07:55:18;30.30;1.00
19033;DHT22;9649;51.042;13.804;2023-06-22T08:00:21;29.70;1.00
19033;DHT22;9649;51.042;13.804;2023-06-22T08:05:26;29.40;1.00
19033;DHT22;9649;51.042;13.804;2023-06-22T08:10:29;29.70;1.00
19033;DHT22;9649;51.042;13.804;2023-06-22T08:15:32;29.90;1.00
19033;DHT22;9649;51.042;13.804;2023-06-22T08:20:36;30.20;1.00
19033;DHT22;9649;51.042;13.804;2023-06-22T08:25:39;30.40;1.00
19033;DHT22;9649;51.042;13.804;2023-06-22T08:30:42;30.80;1.00
19033;DHT22;9649;51.042;13.804;2023-06-22T08:35:46;30.90;1.00
19033;DHT22;9649;51.042;13.804;2023-06-22T08:40:49;31.40;1.00
19033;DHT22;9649;51.042;13.804;2023-06-22T08:45:51;31.60;1.00
19033;DHT22;9649;51.042;13.804;2023-06-22T08:50:55;31.30;1.00
19033;DHT22;9649;51.042;13.804;2023-06-22T08:55:58;31.50;1.00
19033;DHT22;9649;51.042;13.804;2023-06-22T09:01:01;31.50;1.00
19033;DHT22;9649;51.042;13.804;2023-06-22T09:06:05;31.60;1.00
19033;DHT22;9649;51.042;13.804;2023-06-22T09:11:10;32.10;1.00
19033;DHT22;9649;51.042;13.804;2023-06-22T09:16:13;33.20;1.00
19033;DHT22;9649;51.042;13.804;2023-06-22T09:21:17;34.90;99.90
19033;DHT22;9649;51.042;13.804;2023-06-22T09:26:20;35.40;99.90
19033;DHT22;9649;51.042;13.804;2023-06-22T09:31:24;36.60;99.90
19033;DHT22;9649;51.042;13.804;2023-06-22T09:36:29;39.40;99.90
19033;DHT22;9649;51.042;13.804;2023-06-22T09:41:32;39.30;99.90
19033;DHT22;9649;51.042;13.804;2023-06-22T09:46:35;39.30;99.90
19033;DHT22;9649;51.042;13.804;2023-06-22T09:51:39;41.90;99.90
19033;DHT22;9649;51.042;13.804;2023-06-22T09:56:42;44.20;99.90
19033;DHT22;9649;51.042;13.804;2023-06-22T10:01:44;44.90;99.90
19033;DHT22;9649;51.042;13.804;2023-06-22T10:06:49;44.40;99.90
19033;DHT22;9649;51.042;13.804;2023-06-22T10:11:51;42.50;99.90
19033;DHT22;9649;51.042;13.804;2023-06-22T10:16:54;43.40;99.90
19033;DHT22;9649;51.042;13.804;2023-06-22T10:22:01;42.90;99.90
19033;DHT22;9649;51.042;13.804;2023-06-22T10:27:05;40.50;99.90
19033;DHT22;9649;51.042;13.804;2023-06-22T10:32:08;39.40;99.90
19033;DHT22;9649;51.042;13.804;2023-06-22T10:37:12;38.90;99.90
19033;DHT22;9649;51.042;13.804;2023-06-22T10:42:15;41.70;99.90
19033;DHT22;9649;51.042;13.804;2023-06-22T10:47:18;44.00;99.90
19033;DHT22;9649;51.042;13.804;2023-06-22T10:52:22;42.10;99.90
19033;DHT22;9649;51.042;13.804;2023-06-22T10:57:25;45.40;99.90
19033;DHT22;9649;51.042;13.804;2023-06-22T11:02:28;48.70;86.80
19033;DHT22;9649;51.042;13.804;2023-06-22T11:07:32;45.10;72.70
19033;DHT22;9649;51.042;13.804;2023-06-22T11:12:34;42.00;94.00
19033;DHT22;9649;51.042;13.804;2023-06-22T11:17:37;46.80;91.80
19033;DHT22;9649;51.042;13.804;2023-06-22T11:22:42;50.40;54.40
19033;DHT22;9649;51.042;13.804;2023-06-22T11:27:44;52.10;29.10
19033;DHT22;9649;51.042;13.804;2023-06-22T11:32:47;53.90;7.00
19033;DHT22;9649;51.042;13.804;2023-06-22T11:37:51;51.90;1.00
19033;DHT22;9649;51.042;13.804;2023-06-22T11:42:54;49.80;3.10
19033;DHT22;9649;51.042;13.804;2023-06-22T11:47:57;49.80;1.00
19033;DHT22;9649;51.042;13.804;2023-06-22T11:53:01;47.60;9.60
19033;DHT22;9649;51.042;13.804;2023-06-22T11:58:04;48.80;10.30
19033;DHT22;9649;51.042;13.804;2023-06-22T12:03:08;47.50;6.10
19033;DHT22;9649;51.042;13.804;2023-06-22T12:08:12;47.00;13.10
19033;DHT22;9649;51.042;13.804;2023-06-22T12:13:15;48.80;7.80
19033;DHT22;9649;51.042;13.804;2023-06-22T12:18:18;49.40;1.00
19033;DHT22;9649;51.042;13.804;2023-06-22T12:23:23;48.60;2.90
19033;DHT22;9649;51.042;13.804;2023-06-22T12:28:26;49.40;1.00
19033;DHT22;9649;51.042;13.804;2023-06-22T12:33:29;47.70;1.90
19033;DHT22;9649;51.042;13.804;2023-06-22T12:38:33;50.00;1.00
19033;DHT22;9649;51.042;13.804;2023-06-22T12:43:36;51.50;1.00
19033;DHT22;9649;51.042;13.804;2023-06-22T12:48:38;49.10;1.00
19033;DHT22;9649;51.042;13.804;2023-06-22T12:53:45;50.50;1.00
19033;DHT22;9649;51.042;13.804;2023-06-22T12:58:48;49.90;1.00
19033;DHT22;9649;51.042;13.804;2023-06-22T13:03:50;49.70;1.00
19033;DHT22;9649;51.042;13.804;2023-06-22T13:08:54;47.70;1.00
19033;DHT22;9649;51.042;13.804;2023-06-22T13:14:17;48.20;1.00
19033;DHT22;9649;51.042;13.804;2023-06-22T13:19:20;47.10;1.00
19033;DHT22;9649;51.042;13.804;2023-06-22T13:24:24;46.30;1.00
19033;DHT22;9649;51.042;13.804;2023-06-22T13:29:27;47.80;1.00
19033;DHT22;9649;51.042;13.804;2023-06-22T13:34:30;47.20;1.00
19033;DHT22;9649;51.042;13.804;2023-06-22T13:39:34;46.20;2.70
19033;DHT22;9649;51.042;13.804;2023-06-22T13:44:37;48.30;1.00
19033;DHT22;9649;51.042;13.804;2023-06-22T13:49:39;48.70;1.00
19033;DHT22;9649;51.042;13.804;2023-06-22T13:54:43;47.50;1.00
19033;DHT22;9649;51.042;13.804;2023-06-22T13:59:46;47.60;1.00
19033;DHT22;9649;51.042;13.804;2023-06-22T14:04:49;48.30;1.00
19033;DHT22;9649;51.042;13.804;2023-06-22T14:09:53;48.30;1.00
19033;DHT22;9649;51.042;13.804;2023-06-22T14:14:56;45.30;1.00
19033;DHT22;9649;51.042;13.804;2023-06-22T14:19:59;44.80;4.90
19033;DHT22;9649;51.042;13.804;2023-06-22T14:25:05;43.50;10.70
19033;DHT22;9649;51.042;13.804;2023-06-22T14:30:08;41.60;20.70
19033;DHT22;9649;51.042;13.804;2023-06-22T14:35:11;40.10;32.30
19033;DHT22;9649;51.042;13.804;2023-06-22T14:40:16;41.60;37.50
19033;DHT22;9649;51.042;13.804;2023-06-22T14:45:18;43.60;27.40
19033;DHT22;9649;51.042;13.804;2023-06-22T14:50:21;43.40;23.50
19033;DHT22;9649;51.042;13.804;2023-06-22T14:55:25;40.80;37.50
19033;DHT22;9649;51.042;13.804;2023-06-22T15:00:28;40.10;52.80
19033;DHT22;9649;51.042;13.804;2023-06-22T15:05:31;40.70;53.20
19033;DHT22;9649;51.042;13.804;2023-06-22T15:10:37;39.10;65.40
19033;DHT22;9649;51.042;13.804;2023-06-22T15:15:40;38.90;83.70
19033;DHT22;9649;51.042;13.804;2023-06-22T15:20:42;40.40;76.50
19033;DHT22;9649;51.042;13.804;2023-06-22T15:25:48;40.40;74.80
19033;DHT22;9649;51.042;13.804;2023-06-22T15:30:51;39.30;82.00
19033;DHT22;9649;51.042;13.804;2023-06-22T15:35:54;38.60;91.90
19033;DHT22;9649;51.042;13.804;2023-06-22T15:40:59;39.50;93.50
19033;DHT22;9649;51.042;13.804;2023-06-22T15:46:01;39.80;91.30
19033;DHT22;9649;51.042;13.804;2023-06-22T15:51:04;39.20;92.50
19033;DHT22;9649;51.042;13.804;2023-06-22T15:56:09;37.90;99.90
19033;DHT22;9649;51.042;13.804;2023-06-22T16:01:12;37.90;99.90
19033;DHT22;9649;51.042;13.804;2023-06-22T16:06:14;39.20;99.90
19033;DHT22;9649;51.042;13.804;2023-06-22T16:11:18;39.50;99.90
19033;DHT22;9649;51.042;13.804;2023-06-22T16:16:21;39.30;99.90
19033;DHT22;9649;51.042;13.804;2023-06-22T16:21:24;38.80;99.90
19033;DHT22;9649;51.042;13.804;2023-06-22T16:26:30;38.00;99.90
19033;DHT22;9649;51.042;13.804;2023-06-22T16:31:33;37.30;99.90
19033;DHT22;9649;51.042;13.804;2023-06-22T16:36:35;35.70;99.90
19033;DHT22;9649;51.042;13.804;2023-06-22T16:41:39;34.80;99.90
19033;DHT22;9649;51.042;13.804;2023-06-22T16:46:44;34.90;99.90
19033;DHT22;9649;51.042;13.804;2023-06-22T16:51:47;35.20;99.90
19033;DHT22;9649;51.042;13.804;2023-06-22T16:56:51;35.50;99.90
19033;DHT22;9649;51.042;13.804;2023-06-22T17:01:56;35.70;99.90
19033;DHT22;9649;51.042;13.804;2023-06-22T17:07:09;36.00;99.90
19033;DHT22;9649;51.042;13.804;2023-06-22T17:12:15;35.90;99.90
19033;DHT22;9649;51.042;13.804;2023-06-22T17:17:20;35.60;99.90
19033;DHT22;9649;51.042;13.804;2023-06-22T17:22:28;35.40;99.90
19033;DHT22;9649;51.042;13.804;2023-06-22T17:27:38;34.80;99.90
19033;DHT22;9649;51.042;13.804;2023-06-22T17:32:45;34.50;99.90
19033;DHT22;9649;51.042;13.804;2023-06-22T17:37:49;34.20;99.90
19033;DHT22;9649;51.042;13.804;2023-06-22T17:43:02;33.90;99.90
19033;DHT22;9649;51.042;13.804;2023-06-22T18:29:13;29.80;20.40
19033;DHT22;9649;51.042;13.804;2023-06-22T18:34:16;29.60;99.90
19033;DHT22;9649;51.042;13.804;2023-06-22T18:39:22;29.50;99.90
19033;DHT22;9649;51.042;13.804;2023-06-22T18:44:28;29.30;99.90
19033;DHT22;9649;51.042;13.804;2023-06-22T18:49:32;29.20;99.90
19033;DHT22;9649;51.042;13.804;2023-06-22T18:54:36;29.10;99.90
19033;DHT22;9649;51.042;13.804;2023-06-22T18:59:47;28.90;1.00
19033;DHT22;9649;51.042;13.804;2023-06-22T19:04:50;28.80;1.00
19033;DHT22;9649;51.042;13.804;2023-06-22T19:10:24;28.70;1.00
19033;DHT22;9649;51.042;13.804;2023-06-22T19:15:32;28.60;1.00
19033;DHT22;9649;51.042;13.804;2023-06-22T19:20:35;28.40;1.00
19033;DHT22;9649;51.042;13.804;2023-06-22T19:25:45;28.30;1.00
19033;DHT22;9649;51.042;13.804;2023-06-22T19:30:51;28.30;1.00
19033;DHT22;9649;51.042;13.804;2023-06-22T19:35:55;28.20;1.00
19033;DHT22;9649;51.042;13.804;2023-06-22T19:40:59;28.20;1.00
19033;DHT22;9649;51.042;13.804;2023-06-22T19:46:03;28.00;1.00
19033;DHT22;9649;51.042;13.804;2023-06-22T19:51:06;27.90;1.00
19033;DHT22;9649;51.042;13.804;2023-06-22T19:56:09;27.70;65.90
19033;DHT22;9649;51.042;13.804;2023-06-22T20:01:13;27.70;99.90
19033;DHT22;9649;51.042;13.804;2023-06-22T20:06:16;27.70;99.90
19033;DHT22;9649;51.042;13.804;2023-06-22T20:11:24;27.70;90.40
19033;DHT22;9649;51.042;13.804;2023-06-22T20:16:30;27.60;99.90
19033;DHT22;9649;51.042;13.804;2023-06-22T20:21:33;27.60;99.90
19033;DHT22;9649;51.042;13.804;2023-06-22T20:26:39;27.50;99.90
19033;DHT22;9649;51.042;13.804;2023-06-22T20:31:43;27.50;99.90
19033;DHT22;9649;51.042;13.804;2023-06-22T20:36:46;27.50;99.90
19033;DHT22;9649;51.042;13.804;2023-06-22T20:41:49;27.30;1.00
19033;DHT22;9649;51.042;13.804;2023-06-22T20:46:53;27.30;1.00
19033;DHT22;9649;51.042;13.804;2023-06-22T20:51:56;27.20;1.00
19033;DHT22;9649;51.042;13.804;2023-06-22T20:56:59;27.30;1.00
19033;DHT22;9649;51.042;13.804;2023-06-22T21:02:03;27.40;1.00
19033;DHT22;9649;51.042;13.804;2023-06-22T21:07:06;27.40;99.90
19033;DHT22;9649;51.042;13.804;2023-06-22T21:12:09;27.50;99.90
19033;DHT22;9649;51.042;13.804;2023-06-22T21:17:13;27.50;99.90
19033;DHT22;9649;51.042;13.804;2023-06-22T21:22:17;27.50;99.90
19033;DHT22;9649;51.042;13.804;2023-06-22T21:27:20;27.40;1.00
19033;DHT22;9649;51.042;13.804;2023-06-22T21:32:24;27.40;1.00
19033;DHT22;9649;51.042;13.804;2023-06-22T21:37:27;27.60;1.00
19033;DHT22;9649;51.042;13.804;2023-06-22T21:42:29;26.80;1.00
19033;DHT22;9649;51.042;13.804;2023-06-22T21:47:33;25.60;99.90
19033;DHT22;9649;51.042;13.804;2023-06-22T21:52:36;25.00;1.00
19033;DHT22;9649;51.042;13.804;2023-06-22T21:57:39;24.60;16.40
19033;DHT22;9649;51.042;13.804;2023-06-22T22:02:43;24.60;94.10
19033;DHT22;9649;51.042;13.804;2023-06-22T22:07:46;24.80;24.10
19033;DHT22;9649;51.042;13.804;2023-06-22T22:12:49;25.00;1.00
19033;DHT22;9649;51.042;13.804;2023-06-22T22:17:53;25.00;1.00
19033;DHT22;9649;51.042;13.804;2023-06-22T22:22:57;25.10;1.00
19033;DHT22;9649;51.042;13.804;2023-06-22T22:27:59;25.10;1.00
19033;DHT22;9649;51.042;13.804;2023-06-22T22:33:03;25.10;1.00
19033;DHT22;9649;51.042;13.804;2023-06-22T22:38:08;24.60;99.90
19033;DHT22;9649;51.042;13.804;2023-06-22T22:43:11;24.10;99.90
19033;DHT22;9649;51.042;13.804;2023-06-22T22:48:15;23.70;99.90
19033;DHT22;9649;51.042;13.804;2023-06-22T22:53:18;23.50;99.90
19033;DHT22;9649;51.042;13.804;2023-06-22T22:58:21;23.50;99.90
19033;DHT22;9649;51.042;13.804;2023-06-22T23:03:25;23.20;99.90
19033;DHT22;9649;51.042;13.804;2023-06-22T23:08:28;23.20;99.90
19033;DHT22;9649;51.042;13.804;2023-06-22T23:13:31;23.20;99.90
19033;DHT22;9649;51.042;13.804;2023-06-22T23:18:35;22.90;99.90
19033;DHT22;9649;51.042;13.804;2023-06-22T23:23:38;21.30;99.90
19033;DHT22;9649;51.042;13.804;2023-06-22T23:29:23;20.50;99.90
19033;DHT22;9649;51.042;13.804;2023-06-22T23:35:45;20.30;99.90
19033;DHT22;9649;51.042;13.804;2023-06-22T23:41:23;20.30;99.90
